sensor_id;sensor_type;location;lat;lon;timestamp;P1;durP1;ratioP1;P2;durP2;ratioP2
5121;SDS011;2563;52.242;7.956;2024-02-16T00:01:00;7.13;;;2.03;;
5121;SDS011;2563;52.242;7.956;2024-02-16T00:03:27;4.93;;;1.60;;
5121;SDS011;2563;52.242;7.956;2024-02-16T00:05:52;4.10;;;1.47;;
5121;SDS011;2563;52.242;7.956;2024-02-16T00:08:18;5.13;;;1.27;;
5121;SDS011;2563;52.242;7.956;2024-02-16T00:10:45;4.60;;;1.73;;
5121;SDS011;2563;52.242;7.956;2024-02-16T00:13:10;5.97;;;1.73;;
5121;SDS011;2563;52.242;7.956;2024-02-16T00:15:36;5.03;;;1.60;;
5121;SDS011;2563;52.242;7.956;2024-02-16T00:18:03;8.43;;;2.00;;
5121;SDS011;2563;52.242;7.956;2024-02-16T00:20:29;6.00;;;1.83;;
5121;SDS011;2563;52.242;7.956;2024-02-16T00:22:56;6.10;;;1.60;;
5121;SDS011;2563;52.242;7.956;2024-02-16T00:25:22;7.23;;;1.60;;
5121;SDS011;2563;52.242;7.956;2024-02-16T00:27:47;4.00;;;1.40;;
5121;SDS011;2563;52.242;7.956;2024-02-16T00:30:13;6.97;;;1.97;;
5121;SDS011;2563;52.242;7.956;2024-02-16T00:32:38;6.20;;;1.70;;
5121;SDS011;2563;52.242;7.956;2024-02-16T00:35:04;5.30;;;1.57;;
5121;SDS011;2563;52.242;7.956;2024-02-16T00:37:29;4.17;;;1.30;;
5121;SDS011;2563;52.242;7.956;2024-02-16T00:39:55;8.13;;;1.63;;
5121;SDS011;2563;52.242;7.956;2024-02-16T00:42:21;4.83;;;1.60;;
5121;SDS011;2563;52.242;7.956;2024-02-16T00:44:48;9.63;;;1.83;;
5121;SDS011;2563;52.242;7.956;2024-02-16T00:47:14;6.87;;;1.80;;
5121;SDS011;2563;52.242;7.956;2024-02-16T00:49:41;9.80;;;1.57;;
5121;SDS011;2563;52.242;7.956;2024-02-16T00:52:07;4.33;;;1.50;;
5121;SDS011;2563;52.242;7.956;2024-02-16T00:54:32;6.13;;;1.70;;
5121;SDS011;2563;52.242;7.956;2024-02-16T00:56:58;7.40;;;2.20;;
5121;SDS011;2563;52.242;7.956;2024-02-16T00:59:27;4.47;;;1.60;;
5121;SDS011;2563;52.242;7.956;2024-02-16T01:01:53;13.60;;;2.23;;
5121;SDS011;2563;52.242;7.956;2024-02-16T01:04:18;8.07;;;2.10;;
5121;SDS011;2563;52.242;7.956;2024-02-16T01:06:43;5.30;;;1.70;;
5121;SDS011;2563;52.242;7.956;2024-02-16T01:09:09;6.37;;;2.20;;
5121;SDS011;2563;52.242;7.956;2024-02-16T01:11:34;6.73;;;1.93;;
5121;SDS011;2563;52.242;7.956;2024-02-16T01:14:00;4.40;;;1.60;;
5121;SDS011;2563;52.242;7.956;2024-02-16T01:16:25;6.90;;;2.10;;
5121;SDS011;2563;52.242;7.956;2024-02-16T01:18:50;4.50;;;1.67;;
5121;SDS011;2563;52.242;7.956;2024-02-16T01:21:16;4.80;;;1.60;;
5121;SDS011;2563;52.242;7.956;2024-02-16T01:23:41;4.37;;;1.53;;
5121;SDS011;2563;52.242;7.956;2024-02-16T01:26:07;6.13;;;1.60;;
5121;SDS011;2563;52.242;7.956;2024-02-16T01:28:32;8.83;;;1.87;;
5121;SDS011;2563;52.242;7.956;2024-02-16T01:30:57;13.90;;;2.00;;
5121;SDS011;2563;52.242;7.956;2024-02-16T01:33:23;9.83;;;2.07;;
5121;SDS011;2563;52.242;7.956;2024-02-16T01:35:48;8.10;;;1.83;;
5121;SDS011;2563;52.242;7.956;2024-02-16T01:38:13;9.13;;;2.00;;
5121;SDS011;2563;52.242;7.956;2024-02-16T01:40:39;5.50;;;1.97;;
5121;SDS011;2563;52.242;7.956;2024-02-16T01:43:05;4.63;;;1.70;;
5121;SDS011;2563;52.242;7.956;2024-02-16T01:45:30;6.30;;;1.60;;
5121;SDS011;2563;52.242;7.956;2024-02-16T01:47:58;4.80;;;1.90;;
5121;SDS011;2563;52.242;7.956;2024-02-16T01:50:24;5.20;;;1.73;;
5121;SDS011;2563;52.242;7.956;2024-02-16T01:52:50;5.40;;;1.40;;
5121;SDS011;2563;52.242;7.956;2024-02-16T01:55:16;4.50;;;1.53;;
5121;SDS011;2563;52.242;7.956;2024-02-16T01:57:45;5.07;;;2.03;;
5121;SDS011;2563;52.242;7.956;2024-02-16T02:00:12;5.50;;;1.37;;
5121;SDS011;2563;52.242;7.956;2024-02-16T02:02:40;4.40;;;1.40;;
5121;SDS011;2563;52.242;7.956;2024-02-16T02:05:09;8.37;;;1.80;;
5121;SDS011;2563;52.242;7.956;2024-02-16T02:07:34;5.70;;;1.50;;
5121;SDS011;2563;52.242;7.956;2024-02-16T02:10:00;4.33;;;1.60;;
5121;SDS011;2563;52.242;7.956;2024-02-16T02:12:25;4.70;;;1.67;;
5121;SDS011;2563;52.242;7.956;2024-02-16T02:14:50;8.57;;;1.70;;
5121;SDS011;2563;52.242;7.956;2024-02-16T02:17:17;7.67;;;2.00;;
5121;SDS011;2563;52.242;7.956;2024-02-16T02:19:44;6.40;;;2.20;;
5121;SDS011;2563;52.242;7.956;2024-02-16T02:22:28;8.13;;;1.63;;
5121;SDS011;2563;52.242;7.956;2024-02-16T02:24:54;6.90;;;1.67;;
5121;SDS011;2563;52.242;7.956;2024-02-16T02:27:20;4.57;;;1.50;;
5121;SDS011;2563;52.242;7.956;2024-02-16T02:29:46;5.37;;;2.13;;
5121;SDS011;2563;52.242;7.956;2024-02-16T02:32:12;9.30;;;1.57;;
5121;SDS011;2563;52.242;7.956;2024-02-16T02:34:38;6.23;;;1.60;;
5121;SDS011;2563;52.242;7.956;2024-02-16T02:37:03;5.90;;;1.70;;
5121;SDS011;2563;52.242;7.956;2024-02-16T02:39:32;7.13;;;1.67;;
5121;SDS011;2563;52.242;7.956;2024-02-16T02:41:57;10.10;;;1.90;;
5121;SDS011;2563;52.242;7.956;2024-02-16T02:44:23;6.07;;;1.63;;
5121;SDS011;2563;52.242;7.956;2024-02-16T02:46:49;4.13;;;1.30;;
5121;SDS011;2563;52.242;7.956;2024-02-16T02:49:15;8.03;;;1.70;;
5121;SDS011;2563;52.242;7.956;2024-02-16T02:51:40;16.53;;;2.07;;
5121;SDS011;2563;52.242;7.956;2024-02-16T02:54:06;4.63;;;1.53;;
5121;SDS011;2563;52.242;7.956;2024-02-16T02:56:31;5.90;;;1.60;;
5121;SDS011;2563;52.242;7.956;2024-02-16T02:58:57;6.37;;;1.83;;
5121;SDS011;2563;52.242;7.956;2024-02-16T03:01:22;5.50;;;1.40;;
5121;SDS011;2563;52.242;7.956;2024-02-16T03:03:47;6.00;;;1.47;;
5121;SDS011;2563;52.242;7.956;2024-02-16T03:06:17;3.60;;;1.03;;
5121;SDS011;2563;52.242;7.956;2024-02-16T03:08:43;4.57;;;1.40;;
5121;SDS011;2563;52.242;7.956;2024-02-16T03:11:08;6.67;;;1.30;;
5121;SDS011;2563;52.242;7.956;2024-02-16T03:13:34;6.57;;;1.57;;
5121;SDS011;2563;52.242;7.956;2024-02-16T03:15:59;3.63;;;1.20;;
5121;SDS011;2563;52.242;7.956;2024-02-16T03:18:24;8.57;;;1.20;;
5121;SDS011;2563;52.242;7.956;2024-02-16T03:20:50;5.37;;;1.50;;
5121;SDS011;2563;52.242;7.956;2024-02-16T03:23:16;8.70;;;1.80;;
5121;SDS011;2563;52.242;7.956;2024-02-16T03:25:41;13.20;;;1.53;;
5121;SDS011;2563;52.242;7.956;2024-02-16T03:28:13;3.80;;;1.30;;
5121;SDS011;2563;52.242;7.956;2024-02-16T03:30:39;5.00;;;1.90;;
5121;SDS011;2563;52.242;7.956;2024-02-16T03:33:05;6.67;;;1.43;;
5121;SDS011;2563;52.242;7.956;2024-02-16T03:35:30;4.67;;;1.40;;
5121;SDS011;2563;52.242;7.956;2024-02-16T03:37:55;7.70;;;1.70;;
5121;SDS011;2563;52.242;7.956;2024-02-16T03:40:22;5.87;;;1.53;;
5121;SDS011;2563;52.242;7.956;2024-02-16T03:42:47;5.97;;;1.53;;
5121;SDS011;2563;52.242;7.956;2024-02-16T03:45:13;12.47;;;1.60;;
5121;SDS011;2563;52.242;7.956;2024-02-16T03:47:42;5.03;;;1.47;;
5121;SDS011;2563;52.242;7.956;2024-02-16T03:50:07;8.53;;;1.63;;
5121;SDS011;2563;52.242;7.956;2024-02-16T03:52:33;4.13;;;1.60;;
5121;SDS011;2563;52.242;7.956;2024-02-16T03:54:58;7.53;;;1.83;;
5121;SDS011;2563;52.242;7.956;2024-02-16T03:57:24;4.17;;;1.40;;
5121;SDS011;2563;52.242;7.956;2024-02-16T03:59:50;7.57;;;1.63;;
5121;SDS011;2563;52.242;7.956;2024-02-16T04:02:15;4.40;;;1.50;;
5121;SDS011;2563;52.242;7.956;2024-02-16T04:04:41;4.60;;;1.53;;
5121;SDS011;2563;52.242;7.956;2024-02-16T04:07:07;16.43;;;1.53;;
5121;SDS011;2563;52.242;7.956;2024-02-16T04:09:33;4.37;;;1.23;;
5121;SDS011;2563;52.242;7.956;2024-02-16T04:11:59;4.70;;;1.63;;
5121;SDS011;2563;52.242;7.956;2024-02-16T04:14:25;3.77;;;1.13;;
5121;SDS011;2563;52.242;7.956;2024-02-16T04:16:50;7.57;;;1.50;;
5121;SDS011;2563;52.242;7.956;2024-02-16T04:19:15;15.00;;;1.67;;
5121;SDS011;2563;52.242;7.956;2024-02-16T04:21:41;5.53;;;2.07;;
5121;SDS011;2563;52.242;7.956;2024-02-16T04:24:06;8.50;;;1.27;;
5121;SDS011;2563;52.242;7.956;2024-02-16T04:26:32;4.03;;;1.40;;
5121;SDS011;2563;52.242;7.956;2024-02-16T04:28:58;4.97;;;1.67;;
5121;SDS011;2563;52.242;7.956;2024-02-16T04:31:23;4.00;;;1.47;;
5121;SDS011;2563;52.242;7.956;2024-02-16T04:33:48;6.80;;;1.60;;
5121;SDS011;2563;52.242;7.956;2024-02-16T04:36:14;8.07;;;1.47;;
5121;SDS011;2563;52.242;7.956;2024-02-16T04:38:40;4.83;;;1.30;;
5121;SDS011;2563;52.242;7.956;2024-02-16T04:41:05;4.43;;;1.27;;
5121;SDS011;2563;52.242;7.956;2024-02-16T04:43:31;5.17;;;1.50;;
5121;SDS011;2563;52.242;7.956;2024-02-16T04:45:57;6.20;;;1.70;;
5121;SDS011;2563;52.242;7.956;2024-02-16T04:48:22;7.97;;;1.87;;
5121;SDS011;2563;52.242;7.956;2024-02-16T04:50:48;4.23;;;1.60;;
5121;SDS011;2563;52.242;7.956;2024-02-16T04:53:13;6.27;;;1.90;;
5121;SDS011;2563;52.242;7.956;2024-02-16T04:55:38;7.53;;;1.67;;
5121;SDS011;2563;52.242;7.956;2024-02-16T04:58:04;4.60;;;1.53;;
5121;SDS011;2563;52.242;7.956;2024-02-16T05:00:37;17.37;;;3.57;;
5121;SDS011;2563;52.242;7.956;2024-02-16T05:03:03;5.70;;;1.73;;
5121;SDS011;2563;52.242;7.956;2024-02-16T05:05:29;4.37;;;1.50;;
5121;SDS011;2563;52.242;7.956;2024-02-16T05:07:55;10.70;;;2.00;;
5121;SDS011;2563;52.242;7.956;2024-02-16T05:10:21;8.07;;;2.20;;
5121;SDS011;2563;52.242;7.956;2024-02-16T05:12:46;12.30;;;2.37;;
5121;SDS011;2563;52.242;7.956;2024-02-16T05:15:12;5.77;;;1.40;;
5121;SDS011;2563;52.242;7.956;2024-02-16T05:17:40;4.60;;;1.60;;
5121;SDS011;2563;52.242;7.956;2024-02-16T05:20:09;9.13;;;1.80;;
5121;SDS011;2563;52.242;7.956;2024-02-16T05:22:40;7.30;;;1.80;;
5121;SDS011;2563;52.242;7.956;2024-02-16T05:25:09;4.13;;;1.40;;
5121;SDS011;2563;52.242;7.956;2024-02-16T05:27:35;5.93;;;1.53;;
5121;SDS011;2563;52.242;7.956;2024-02-16T05:30:01;5.40;;;1.73;;
5121;SDS011;2563;52.242;7.956;2024-02-16T05:32:26;6.73;;;1.80;;
5121;SDS011;2563;52.242;7.956;2024-02-16T05:34:52;3.93;;;1.57;;
5121;SDS011;2563;52.242;7.956;2024-02-16T05:37:18;5.43;;;1.63;;
5121;SDS011;2563;52.242;7.956;2024-02-16T05:39:45;6.37;;;1.80;;
5121;SDS011;2563;52.242;7.956;2024-02-16T05:42:22;6.13;;;1.90;;
5121;SDS011;2563;52.242;7.956;2024-02-16T05:44:48;3.47;;;1.27;;
5121;SDS011;2563;52.242;7.956;2024-02-16T05:47:15;5.27;;;1.47;;
5121;SDS011;2563;52.242;7.956;2024-02-16T05:49:41;5.80;;;1.70;;
5121;SDS011;2563;52.242;7.956;2024-02-16T05:52:06;6.57;;;1.50;;
5121;SDS011;2563;52.242;7.956;2024-02-16T05:54:47;4.87;;;1.50;;
5121;SDS011;2563;52.242;7.956;2024-02-16T05:57:13;6.00;;;1.90;;
5121;SDS011;2563;52.242;7.956;2024-02-16T05:59:39;5.97;;;1.80;;
5121;SDS011;2563;52.242;7.956;2024-02-16T06:02:05;5.53;;;1.70;;
5121;SDS011;2563;52.242;7.956;2024-02-16T06:04:33;7.47;;;1.77;;
5121;SDS011;2563;52.242;7.956;2024-02-16T06:06:59;7.00;;;1.73;;
5121;SDS011;2563;52.242;7.956;2024-02-16T06:09:25;6.00;;;1.80;;
5121;SDS011;2563;52.242;7.956;2024-02-16T06:11:51;7.30;;;1.67;;
5121;SDS011;2563;52.242;7.956;2024-02-16T06:14:16;4.73;;;1.50;;
5121;SDS011;2563;52.242;7.956;2024-02-16T06:16:42;12.00;;;1.57;;
5121;SDS011;2563;52.242;7.956;2024-02-16T06:19:08;6.13;;;1.97;;
5121;SDS011;2563;52.242;7.956;2024-02-16T06:21:34;4.90;;;2.10;;
5121;SDS011;2563;52.242;7.956;2024-02-16T06:24:00;5.30;;;1.97;;
5121;SDS011;2563;52.242;7.956;2024-02-16T06:26:25;4.90;;;1.70;;
5121;SDS011;2563;52.242;7.956;2024-02-16T06:28:51;6.30;;;1.50;;
5121;SDS011;2563;52.242;7.956;2024-02-16T06:31:16;5.33;;;1.93;;
5121;SDS011;2563;52.242;7.956;2024-02-16T06:33:41;5.40;;;1.17;;
5121;SDS011;2563;52.242;7.956;2024-02-16T06:36:07;5.20;;;1.77;;
5121;SDS011;2563;52.242;7.956;2024-02-16T06:38:32;5.40;;;1.70;;
5121;SDS011;2563;52.242;7.956;2024-02-16T06:40:58;4.83;;;2.00;;
5121;SDS011;2563;52.242;7.956;2024-02-16T06:43:23;4.00;;;1.50;;
5121;SDS011;2563;52.242;7.956;2024-02-16T06:45:48;4.43;;;1.37;;
5121;SDS011;2563;52.242;7.956;2024-02-16T06:48:14;5.17;;;1.57;;
5121;SDS011;2563;52.242;7.956;2024-02-16T06:50:40;5.00;;;1.90;;
5121;SDS011;2563;52.242;7.956;2024-02-16T06:53:05;3.97;;;1.50;;
5121;SDS011;2563;52.242;7.956;2024-02-16T06:55:30;4.47;;;1.20;;
5121;SDS011;2563;52.242;7.956;2024-02-16T06:57:56;5.73;;;2.17;;
5121;SDS011;2563;52.242;7.956;2024-02-16T07:00:22;4.63;;;1.57;;
5121;SDS011;2563;52.242;7.956;2024-02-16T07:02:47;7.33;;;1.40;;
5121;SDS011;2563;52.242;7.956;2024-02-16T07:05:13;4.77;;;2.03;;
5121;SDS011;2563;52.242;7.956;2024-02-16T07:07:38;4.80;;;1.80;;
5121;SDS011;2563;52.242;7.956;2024-02-16T07:10:04;3.83;;;1.33;;
5121;SDS011;2563;52.242;7.956;2024-02-16T07:12:30;9.53;;;1.80;;
5121;SDS011;2563;52.242;7.956;2024-02-16T07:14:55;7.73;;;1.20;;
5121;SDS011;2563;52.242;7.956;2024-02-16T07:17:21;4.67;;;1.57;;
5121;SDS011;2563;52.242;7.956;2024-02-16T07:19:46;4.47;;;1.50;;
5121;SDS011;2563;52.242;7.956;2024-02-16T07:22:11;5.20;;;1.80;;
5121;SDS011;2563;52.242;7.956;2024-02-16T07:24:37;7.70;;;1.67;;
5121;SDS011;2563;52.242;7.956;2024-02-16T07:27:03;7.93;;;1.70;;
5121;SDS011;2563;52.242;7.956;2024-02-16T07:29:28;6.03;;;1.30;;
5121;SDS011;2563;52.242;7.956;2024-02-16T07:31:54;4.90;;;1.60;;
5121;SDS011;2563;52.242;7.956;2024-02-16T07:34:20;7.00;;;2.40;;
5121;SDS011;2563;52.242;7.956;2024-02-16T07:36:46;6.40;;;1.57;;
5121;SDS011;2563;52.242;7.956;2024-02-16T07:39:11;4.23;;;1.30;;
5121;SDS011;2563;52.242;7.956;2024-02-16T07:41:37;4.53;;;1.80;;
5121;SDS011;2563;52.242;7.956;2024-02-16T07:44:03;4.90;;;1.87;;
5121;SDS011;2563;52.242;7.956;2024-02-16T07:46:29;5.80;;;1.60;;
5121;SDS011;2563;52.242;7.956;2024-02-16T07:48:54;4.73;;;1.60;;
5121;SDS011;2563;52.242;7.956;2024-02-16T07:51:20;6.57;;;1.90;;
5121;SDS011;2563;52.242;7.956;2024-02-16T07:53:45;6.43;;;1.90;;
5121;SDS011;2563;52.242;7.956;2024-02-16T07:56:11;6.50;;;1.80;;
5121;SDS011;2563;52.242;7.956;2024-02-16T07:58:37;5.77;;;1.73;;
5121;SDS011;2563;52.242;7.956;2024-02-16T08:01:02;5.30;;;1.80;;
5121;SDS011;2563;52.242;7.956;2024-02-16T08:03:28;5.63;;;1.70;;
5121;SDS011;2563;52.242;7.956;2024-02-16T08:05:55;7.20;;;2.70;;
5121;SDS011;2563;52.242;7.956;2024-02-16T08:08:21;7.80;;;1.83;;
5121;SDS011;2563;52.242;7.956;2024-02-16T08:10:48;4.20;;;1.60;;
5121;SDS011;2563;52.242;7.956;2024-02-16T08:13:13;9.07;;;2.50;;
5121;SDS011;2563;52.242;7.956;2024-02-16T08:15:38;6.40;;;3.03;;
5121;SDS011;2563;52.242;7.956;2024-02-16T08:18:04;8.43;;;2.47;;
5121;SDS011;2563;52.242;7.956;2024-02-16T08:20:30;4.43;;;1.53;;
5121;SDS011;2563;52.242;7.956;2024-02-16T08:22:55;5.40;;;1.90;;
5121;SDS011;2563;52.242;7.956;2024-02-16T08:25:21;6.33;;;2.10;;
5121;SDS011;2563;52.242;7.956;2024-02-16T08:27:47;5.47;;;1.77;;
5121;SDS011;2563;52.242;7.956;2024-02-16T08:30:14;5.40;;;2.00;;
5121;SDS011;2563;52.242;7.956;2024-02-16T08:32:40;7.60;;;2.73;;
5121;SDS011;2563;52.242;7.956;2024-02-16T08:35:05;5.00;;;1.93;;
5121;SDS011;2563;52.242;7.956;2024-02-16T08:37:31;6.70;;;2.13;;
5121;SDS011;2563;52.242;7.956;2024-02-16T08:39:57;7.50;;;2.10;;
5121;SDS011;2563;52.242;7.956;2024-02-16T08:42:22;4.50;;;1.70;;
5121;SDS011;2563;52.242;7.956;2024-02-16T08:44:48;5.70;;;1.90;;
5121;SDS011;2563;52.242;7.956;2024-02-16T08:47:14;7.27;;;2.37;;
5121;SDS011;2563;52.242;7.956;2024-02-16T08:49:40;6.80;;;1.90;;
5121;SDS011;2563;52.242;7.956;2024-02-16T08:52:07;6.77;;;2.10;;
5121;SDS011;2563;52.242;7.956;2024-02-16T08:54:33;4.63;;;2.00;;
5121;SDS011;2563;52.242;7.956;2024-02-16T08:56:58;4.60;;;2.10;;
5121;SDS011;2563;52.242;7.956;2024-02-16T08:59:24;8.17;;;1.70;;
5121;SDS011;2563;52.242;7.956;2024-02-16T09:01:50;5.27;;;2.10;;
5121;SDS011;2563;52.242;7.956;2024-02-16T09:04:15;7.03;;;1.90;;
5121;SDS011;2563;52.242;7.956;2024-02-16T09:06:41;4.83;;;2.00;;
5121;SDS011;2563;52.242;7.956;2024-02-16T09:09:07;12.53;;;2.10;;
5121;SDS011;2563;52.242;7.956;2024-02-16T09:11:32;6.20;;;2.20;;
5121;SDS011;2563;52.242;7.956;2024-02-16T09:13:58;6.20;;;1.77;;
5121;SDS011;2563;52.242;7.956;2024-02-16T09:16:24;6.80;;;2.27;;
5121;SDS011;2563;52.242;7.956;2024-02-16T09:18:50;10.87;;;2.80;;
5121;SDS011;2563;52.242;7.956;2024-02-16T09:21:15;5.80;;;2.20;;
5121;SDS011;2563;52.242;7.956;2024-02-16T09:23:40;5.70;;;2.40;;
5121;SDS011;2563;52.242;7.956;2024-02-16T09:26:06;6.27;;;2.20;;
5121;SDS011;2563;52.242;7.956;2024-02-16T09:28:38;4.90;;;1.97;;
5121;SDS011;2563;52.242;7.956;2024-02-16T09:31:04;6.27;;;2.87;;
5121;SDS011;2563;52.242;7.956;2024-02-16T09:33:29;5.33;;;2.67;;
5121;SDS011;2563;52.242;7.956;2024-02-16T09:35:54;6.23;;;2.43;;
5121;SDS011;2563;52.242;7.956;2024-02-16T09:38:20;6.47;;;2.07;;
5121;SDS011;2563;52.242;7.956;2024-02-16T09:40:45;8.73;;;2.43;;
5121;SDS011;2563;52.242;7.956;2024-02-16T09:43:20;6.77;;;2.50;;
5121;SDS011;2563;52.242;7.956;2024-02-16T09:45:57;6.50;;;2.17;;
5121;SDS011;2563;52.242;7.956;2024-02-16T09:48:25;8.20;;;2.90;;
5121;SDS011;2563;52.242;7.956;2024-02-16T09:50:55;6.60;;;3.07;;
5121;SDS011;2563;52.242;7.956;2024-02-16T09:53:24;7.33;;;2.83;;
5121;SDS011;2563;52.242;7.956;2024-02-16T09:55:51;10.80;;;3.33;;
5121;SDS011;2563;52.242;7.956;2024-02-16T09:58:17;6.60;;;2.67;;
5121;SDS011;2563;52.242;7.956;2024-02-16T10:00:53;8.27;;;2.37;;
5121;SDS011;2563;52.242;7.956;2024-02-16T10:03:27;7.53;;;2.53;;
5121;SDS011;2563;52.242;7.956;2024-02-16T10:06:04;7.70;;;2.17;;
5121;SDS011;2563;52.242;7.956;2024-02-16T10:08:31;7.80;;;2.60;;
5121;SDS011;2563;52.242;7.956;2024-02-16T10:11:04;11.83;;;3.00;;
5121;SDS011;2563;52.242;7.956;2024-02-16T10:13:30;9.43;;;2.80;;
5121;SDS011;2563;52.242;7.956;2024-02-16T10:16:09;9.53;;;2.80;;
5121;SDS011;2563;52.242;7.956;2024-02-16T10:18:36;6.40;;;2.70;;
5121;SDS011;2563;52.242;7.956;2024-02-16T10:21:02;8.13;;;2.90;;
5121;SDS011;2563;52.242;7.956;2024-02-16T10:23:28;6.53;;;2.53;;
5121;SDS011;2563;52.242;7.956;2024-02-16T10:25:54;6.80;;;2.43;;
5121;SDS011;2563;52.242;7.956;2024-02-16T10:28:19;6.67;;;2.90;;
5121;SDS011;2563;52.242;7.956;2024-02-16T10:30:52;8.63;;;3.50;;
5121;SDS011;2563;52.242;7.956;2024-02-16T10:33:22;7.00;;;2.43;;
5121;SDS011;2563;52.242;7.956;2024-02-16T10:35:49;6.23;;;2.20;;
5121;SDS011;2563;52.242;7.956;2024-02-16T10:38:16;10.03;;;2.40;;
5121;SDS011;2563;52.242;7.956;2024-02-16T10:40:43;13.53;;;2.80;;
5121;SDS011;2563;52.242;7.956;2024-02-16T10:43:10;7.73;;;2.73;;
5121;SDS011;2563;52.242;7.956;2024-02-16T10:45:38;13.33;;;2.67;;
5121;SDS011;2563;52.242;7.956;2024-02-16T10:48:05;6.00;;;2.53;;
5121;SDS011;2563;52.242;7.956;2024-02-16T10:50:33;8.13;;;3.00;;
5121;SDS011;2563;52.242;7.956;2024-02-16T10:53:09;9.10;;;3.03;;
5121;SDS011;2563;52.242;7.956;2024-02-16T10:55:43;7.70;;;2.57;;
5121;SDS011;2563;52.242;7.956;2024-02-16T10:58:10;7.37;;;2.53;;
5121;SDS011;2563;52.242;7.956;2024-02-16T11:00:47;8.73;;;2.63;;
5121;SDS011;2563;52.242;7.956;2024-02-16T11:03:17;8.47;;;2.70;;
5121;SDS011;2563;52.242;7.956;2024-02-16T11:05:48;6.93;;;2.83;;
5121;SDS011;2563;52.242;7.956;2024-02-16T11:08:19;12.70;;;3.17;;
5121;SDS011;2563;52.242;7.956;2024-02-16T11:11:01;10.73;;;2.70;;
5121;SDS011;2563;52.242;7.956;2024-02-16T11:13:32;11.13;;;2.90;;
5121;SDS011;2563;52.242;7.956;2024-02-16T11:18:24;9.43;;;2.93;;
5121;SDS011;2563;52.242;7.956;2024-02-16T11:20:51;10.53;;;2.80;;
5121;SDS011;2563;52.242;7.956;2024-02-16T11:23:19;12.83;;;3.00;;
5121;SDS011;2563;52.242;7.956;2024-02-16T11:25:51;8.40;;;2.90;;
5121;SDS011;2563;52.242;7.956;2024-02-16T11:28:17;13.13;;;3.63;;
5121;SDS011;2563;52.242;7.956;2024-02-16T11:30:44;10.10;;;3.13;;
5121;SDS011;2563;52.242;7.956;2024-02-16T11:33:12;10.03;;;3.13;;
5121;SDS011;2563;52.242;7.956;2024-02-16T11:35:37;11.83;;;3.53;;
5121;SDS011;2563;52.242;7.956;2024-02-16T11:38:06;8.87;;;2.63;;
5121;SDS011;2563;52.242;7.956;2024-02-16T11:40:32;6.90;;;2.77;;
5121;SDS011;2563;52.242;7.956;2024-02-16T11:42:58;8.80;;;3.13;;
5121;SDS011;2563;52.242;7.956;2024-02-16T11:45:24;8.93;;;3.10;;
5121;SDS011;2563;52.242;7.956;2024-02-16T11:47:50;10.80;;;3.20;;
5121;SDS011;2563;52.242;7.956;2024-02-16T11:50:17;11.03;;;3.70;;
5121;SDS011;2563;52.242;7.956;2024-02-16T11:52:43;7.00;;;2.87;;
5121;SDS011;2563;52.242;7.956;2024-02-16T11:55:09;8.33;;;3.30;;
5121;SDS011;2563;52.242;7.956;2024-02-16T11:57:36;16.17;;;3.27;;
5121;SDS011;2563;52.242;7.956;2024-02-16T12:00:03;10.37;;;3.60;;
5121;SDS011;2563;52.242;7.956;2024-02-16T12:02:33;9.13;;;3.10;;
5121;SDS011;2563;52.242;7.956;2024-02-16T12:05:00;6.10;;;2.90;;
5121;SDS011;2563;52.242;7.956;2024-02-16T12:07:26;7.53;;;2.80;;
5121;SDS011;2563;52.242;7.956;2024-02-16T12:09:58;10.50;;;2.60;;
5121;SDS011;2563;52.242;7.956;2024-02-16T12:12:25;8.30;;;3.60;;
5121;SDS011;2563;52.242;7.956;2024-02-16T12:14:52;7.30;;;2.50;;
5121;SDS011;2563;52.242;7.956;2024-02-16T12:17:18;7.37;;;3.50;;
5121;SDS011;2563;52.242;7.956;2024-02-16T12:19:46;12.90;;;3.40;;
5121;SDS011;2563;52.242;7.956;2024-02-16T12:22:19;12.80;;;3.40;;
5121;SDS011;2563;52.242;7.956;2024-02-16T12:24:45;10.30;;;3.40;;
5121;SDS011;2563;52.242;7.956;2024-02-16T12:27:11;6.60;;;2.97;;
5121;SDS011;2563;52.242;7.956;2024-02-16T12:29:38;8.80;;;3.47;;
5121;SDS011;2563;52.242;7.956;2024-02-16T12:32:04;12.00;;;3.80;;
5121;SDS011;2563;52.242;7.956;2024-02-16T12:34:30;10.37;;;3.53;;
5121;SDS011;2563;52.242;7.956;2024-02-16T12:36:55;9.40;;;3.43;;
5121;SDS011;2563;52.242;7.956;2024-02-16T12:39:20;13.53;;;4.13;;
5121;SDS011;2563;52.242;7.956;2024-02-16T12:41:46;11.57;;;4.07;;
5121;SDS011;2563;52.242;7.956;2024-02-16T12:44:12;9.50;;;3.90;;
5121;SDS011;2563;52.242;7.956;2024-02-16T12:46:37;10.17;;;3.90;;
5121;SDS011;2563;52.242;7.956;2024-02-16T12:49:03;16.83;;;5.83;;
5121;SDS011;2563;52.242;7.956;2024-02-16T12:51:29;9.10;;;3.50;;
5121;SDS011;2563;52.242;7.956;2024-02-16T12:53:54;9.23;;;4.17;;
5121;SDS011;2563;52.242;7.956;2024-02-16T12:56:20;11.90;;;4.80;;
5121;SDS011;2563;52.242;7.956;2024-02-16T12:58:46;12.83;;;4.17;;
5121;SDS011;2563;52.242;7.956;2024-02-16T13:01:11;10.87;;;4.30;;
5121;SDS011;2563;52.242;7.956;2024-02-16T13:03:38;16.60;;;4.10;;
5121;SDS011;2563;52.242;7.956;2024-02-16T13:06:04;6.73;;;3.53;;
5121;SDS011;2563;52.242;7.956;2024-02-16T13:08:30;11.80;;;4.80;;
5121;SDS011;2563;52.242;7.956;2024-02-16T13:10:56;10.43;;;4.10;;
5121;SDS011;2563;52.242;7.956;2024-02-16T13:13:22;12.20;;;4.00;;
5121;SDS011;2563;52.242;7.956;2024-02-16T13:15:48;11.77;;;4.60;;
5121;SDS011;2563;52.242;7.956;2024-02-16T13:18:14;11.83;;;4.13;;
5121;SDS011;2563;52.242;7.956;2024-02-16T13:20:39;8.80;;;4.30;;
5121;SDS011;2563;52.242;7.956;2024-02-16T13:23:05;15.40;;;4.40;;
5121;SDS011;2563;52.242;7.956;2024-02-16T13:25:30;10.53;;;4.23;;
5121;SDS011;2563;52.242;7.956;2024-02-16T13:27:55;16.20;;;4.20;;
5121;SDS011;2563;52.242;7.956;2024-02-16T13:30:21;9.10;;;4.70;;
5121;SDS011;2563;52.242;7.956;2024-02-16T13:32:46;11.53;;;4.43;;
5121;SDS011;2563;52.242;7.956;2024-02-16T13:35:11;9.70;;;4.20;;
5121;SDS011;2563;52.242;7.956;2024-02-16T13:37:38;15.73;;;4.90;;
5121;SDS011;2563;52.242;7.956;2024-02-16T13:40:06;10.87;;;3.93;;
5121;SDS011;2563;52.242;7.956;2024-02-16T13:42:36;14.73;;;5.37;;
5121;SDS011;2563;52.242;7.956;2024-02-16T13:45:03;13.43;;;5.43;;
5121;SDS011;2563;52.242;7.956;2024-02-16T13:47:29;8.63;;;4.33;;
5121;SDS011;2563;52.242;7.956;2024-02-16T13:49:54;13.60;;;5.13;;
5121;SDS011;2563;52.242;7.956;2024-02-16T13:52:21;14.97;;;4.47;;
5121;SDS011;2563;52.242;7.956;2024-02-16T13:54:47;9.47;;;3.73;;
5121;SDS011;2563;52.242;7.956;2024-02-16T13:57:13;13.67;;;4.97;;
5121;SDS011;2563;52.242;7.956;2024-02-16T13:59:38;9.63;;;4.70;;
5121;SDS011;2563;52.242;7.956;2024-02-16T14:02:03;11.47;;;4.70;;
5121;SDS011;2563;52.242;7.956;2024-02-16T14:04:29;16.80;;;4.50;;
5121;SDS011;2563;52.242;7.956;2024-02-16T14:06:54;12.90;;;4.70;;
5121;SDS011;2563;52.242;7.956;2024-02-16T14:09:20;10.03;;;4.70;;
5121;SDS011;2563;52.242;7.956;2024-02-16T14:11:45;13.43;;;5.10;;
5121;SDS011;2563;52.242;7.956;2024-02-16T14:14:11;15.90;;;5.20;;
5121;SDS011;2563;52.242;7.956;2024-02-16T14:16:37;14.70;;;5.30;;
5121;SDS011;2563;52.242;7.956;2024-02-16T14:19:02;9.13;;;4.93;;
5121;SDS011;2563;52.242;7.956;2024-02-16T14:21:28;10.03;;;5.10;;
5121;SDS011;2563;52.242;7.956;2024-02-16T14:23:54;11.43;;;5.10;;
5121;SDS011;2563;52.242;7.956;2024-02-16T14:26:19;10.30;;;5.20;;
5121;SDS011;2563;52.242;7.956;2024-02-16T14:28:45;10.40;;;5.03;;
5121;SDS011;2563;52.242;7.956;2024-02-16T14:31:11;10.70;;;4.80;;
5121;SDS011;2563;52.242;7.956;2024-02-16T14:33:39;18.13;;;6.00;;
5121;SDS011;2563;52.242;7.956;2024-02-16T14:36:04;12.03;;;5.20;;
5121;SDS011;2563;52.242;7.956;2024-02-16T14:38:30;10.20;;;4.70;;
5121;SDS011;2563;52.242;7.956;2024-02-16T14:40:56;10.13;;;5.20;;
5121;SDS011;2563;52.242;7.956;2024-02-16T14:43:21;10.63;;;4.57;;
5121;SDS011;2563;52.242;7.956;2024-02-16T14:45:47;11.93;;;5.00;;
5121;SDS011;2563;52.242;7.956;2024-02-16T14:48:12;10.20;;;4.60;;
5121;SDS011;2563;52.242;7.956;2024-02-16T14:50:38;11.53;;;4.60;;
5121;SDS011;2563;52.242;7.956;2024-02-16T14:53:03;12.90;;;4.63;;
5121;SDS011;2563;52.242;7.956;2024-02-16T14:55:29;10.27;;;4.57;;
5121;SDS011;2563;52.242;7.956;2024-02-16T14:57:55;13.60;;;5.40;;
5121;SDS011;2563;52.242;7.956;2024-02-16T15:00:20;12.07;;;5.13;;
5121;SDS011;2563;52.242;7.956;2024-02-16T15:02:48;9.10;;;4.63;;
5121;SDS011;2563;52.242;7.956;2024-02-16T15:05:13;11.73;;;5.17;;
5121;SDS011;2563;52.242;7.956;2024-02-16T15:07:38;13.90;;;4.10;;
5121;SDS011;2563;52.242;7.956;2024-02-16T15:10:04;12.10;;;5.20;;